Terminal Aerodrome Forecast
Issued by NWS Kansas City/Pleasant Hill, MO

Home | Current Version | Previous Version | Text Only | Print | Product List | Glossary On
Versions: 1 2 3 4 5 6 7 8 9 10 11 12 13 14 15 16 17 18 19 20
577
FTUS43 KEAX 151601 AAC
TAFMCI
TAF AMD
KMCI 151601Z 1516/1612 32012KT P6SM SCT022
     FM151700 33011G21KT P6SM SKC
     FM160200 VRB04KT P6SM SKC=

USA.gov is the U.S. government's official web portal to all federal, state and local government web resources and services.